sensor_id;sensor_type;location;lat;lon;timestamp;P1;durP1;ratioP1;P2;durP2;ratioP2
39540;SDS011;25219;52.244;21.006;2024-01-30T00:00:31;48.92;;;18.67;;
39540;SDS011;25219;52.244;21.006;2024-01-30T00:02:56;43.30;;;18.02;;
39540;SDS011;25219;52.244;21.006;2024-01-30T00:05:21;41.17;;;16.77;;
39540;SDS011;25219;52.244;21.006;2024-01-30T00:07:47;46.50;;;18.20;;
39540;SDS011;25219;52.244;21.006;2024-01-30T00:10:14;38.67;;;17.02;;
39540;SDS011;25219;52.244;21.006;2024-01-30T00:12:39;36.85;;;16.70;;
39540;SDS011;25219;52.244;21.006;2024-01-30T00:15:04;39.67;;;16.60;;
39540;SDS011;25219;52.244;21.006;2024-01-30T00:17:30;41.63;;;18.25;;
39540;SDS011;25219;52.244;21.006;2024-01-30T00:19:55;39.47;;;16.90;;
39540;SDS011;25219;52.244;21.006;2024-01-30T00:22:20;48.42;;;18.70;;
39540;SDS011;25219;52.244;21.006;2024-01-30T00:24:45;41.00;;;17.53;;
39540;SDS011;25219;52.244;21.006;2024-01-30T00:27:11;37.67;;;16.03;;
39540;SDS011;25219;52.244;21.006;2024-01-30T00:29:36;41.03;;;16.83;;
39540;SDS011;25219;52.244;21.006;2024-01-30T00:32:01;43.17;;;16.43;;
39540;SDS011;25219;52.244;21.006;2024-01-30T00:34:26;45.42;;;17.70;;
39540;SDS011;25219;52.244;21.006;2024-01-30T00:36:52;45.40;;;18.05;;
39540;SDS011;25219;52.244;21.006;2024-01-30T00:42:10;46.97;;;17.65;;
39540;SDS011;25219;52.244;21.006;2024-01-30T00:44:35;36.55;;;15.90;;
39540;SDS011;25219;52.244;21.006;2024-01-30T00:47:03;41.22;;;17.10;;
39540;SDS011;25219;52.244;21.006;2024-01-30T00:49:28;41.33;;;17.08;;
39540;SDS011;25219;52.244;21.006;2024-01-30T00:51:53;43.35;;;16.35;;
39540;SDS011;25219;52.244;21.006;2024-01-30T00:54:18;39.78;;;16.85;;
39540;SDS011;25219;52.244;21.006;2024-01-30T00:56:44;38.23;;;16.20;;
39540;SDS011;25219;52.244;21.006;2024-01-30T00:59:09;39.23;;;15.57;;
39540;SDS011;25219;52.244;21.006;2024-01-30T01:01:34;39.30;;;16.67;;
39540;SDS011;25219;52.244;21.006;2024-01-30T01:03:59;38.83;;;16.65;;
39540;SDS011;25219;52.244;21.006;2024-01-30T01:06:25;38.17;;;17.03;;
39540;SDS011;25219;52.244;21.006;2024-01-30T01:08:50;34.30;;;15.25;;
39540;SDS011;25219;52.244;21.006;2024-01-30T01:11:15;38.83;;;15.43;;
39540;SDS011;25219;52.244;21.006;2024-01-30T01:13:40;39.35;;;15.32;;
39540;SDS011;25219;52.244;21.006;2024-01-30T01:16:05;33.60;;;15.07;;
39540;SDS011;25219;52.244;21.006;2024-01-30T01:18:31;34.75;;;15.07;;
39540;SDS011;25219;52.244;21.006;2024-01-30T01:20:56;37.77;;;15.67;;
39540;SDS011;25219;52.244;21.006;2024-01-30T01:23:21;34.55;;;15.80;;
39540;SDS011;25219;52.244;21.006;2024-01-30T01:25:46;35.97;;;15.35;;
39540;SDS011;25219;52.244;21.006;2024-01-30T01:28:12;34.50;;;14.93;;
39540;SDS011;25219;52.244;21.006;2024-01-30T01:30:37;41.35;;;15.45;;
39540;SDS011;25219;52.244;21.006;2024-01-30T01:33:03;34.65;;;14.57;;
39540;SDS011;25219;52.244;21.006;2024-01-30T01:35:28;37.25;;;15.20;;
39540;SDS011;25219;52.244;21.006;2024-01-30T01:37:54;36.42;;;14.80;;
39540;SDS011;25219;52.244;21.006;2024-01-30T01:40:23;39.60;;;15.60;;
39540;SDS011;25219;52.244;21.006;2024-01-30T01:42:52;32.05;;;14.77;;
39540;SDS011;25219;52.244;21.006;2024-01-30T01:45:18;35.00;;;14.75;;
39540;SDS011;25219;52.244;21.006;2024-01-30T01:47:43;35.35;;;14.88;;
39540;SDS011;25219;52.244;21.006;2024-01-30T01:50:10;37.53;;;16.20;;
39540;SDS011;25219;52.244;21.006;2024-01-30T01:52:36;32.17;;;14.70;;
39540;SDS011;25219;52.244;21.006;2024-01-30T01:55:02;36.00;;;15.73;;
39540;SDS011;25219;52.244;21.006;2024-01-30T01:57:27;42.95;;;16.63;;
39540;SDS011;25219;52.244;21.006;2024-01-30T01:59:52;30.90;;;15.00;;
39540;SDS011;25219;52.244;21.006;2024-01-30T02:02:18;32.40;;;14.87;;
39540;SDS011;25219;52.244;21.006;2024-01-30T02:04:44;35.10;;;14.80;;
39540;SDS011;25219;52.244;21.006;2024-01-30T02:07:10;37.10;;;14.60;;
39540;SDS011;25219;52.244;21.006;2024-01-30T02:09:35;36.80;;;15.77;;
39540;SDS011;25219;52.244;21.006;2024-01-30T02:12:00;39.83;;;15.82;;
39540;SDS011;25219;52.244;21.006;2024-01-30T02:14:26;34.58;;;15.20;;
39540;SDS011;25219;52.244;21.006;2024-01-30T02:16:51;39.08;;;16.52;;
39540;SDS011;25219;52.244;21.006;2024-01-30T02:19:16;38.97;;;15.40;;
39540;SDS011;25219;52.244;21.006;2024-01-30T02:21:41;41.53;;;16.77;;
39540;SDS011;25219;52.244;21.006;2024-01-30T02:24:07;34.75;;;15.00;;
39540;SDS011;25219;52.244;21.006;2024-01-30T02:26:32;37.83;;;15.80;;
39540;SDS011;25219;52.244;21.006;2024-01-30T02:28:59;38.15;;;16.27;;
39540;SDS011;25219;52.244;21.006;2024-01-30T02:31:25;41.60;;;16.47;;
39540;SDS011;25219;52.244;21.006;2024-01-30T02:33:50;37.38;;;16.15;;
39540;SDS011;25219;52.244;21.006;2024-01-30T02:36:15;41.50;;;16.03;;
39540;SDS011;25219;52.244;21.006;2024-01-30T02:38:40;37.92;;;15.50;;
39540;SDS011;25219;52.244;21.006;2024-01-30T02:41:06;37.85;;;15.50;;
39540;SDS011;25219;52.244;21.006;2024-01-30T02:43:31;32.30;;;14.57;;
39540;SDS011;25219;52.244;21.006;2024-01-30T02:45:56;36.72;;;15.90;;
39540;SDS011;25219;52.244;21.006;2024-01-30T02:48:23;39.03;;;16.58;;
39540;SDS011;25219;52.244;21.006;2024-01-30T02:50:48;44.85;;;16.17;;
39540;SDS011;25219;52.244;21.006;2024-01-30T02:53:13;33.03;;;16.13;;
39540;SDS011;25219;52.244;21.006;2024-01-30T02:55:38;31.97;;;14.83;;
39540;SDS011;25219;52.244;21.006;2024-01-30T02:58:04;34.77;;;14.67;;
39540;SDS011;25219;52.244;21.006;2024-01-30T03:00:29;35.20;;;15.17;;
39540;SDS011;25219;52.244;21.006;2024-01-30T03:02:54;37.67;;;15.95;;
39540;SDS011;25219;52.244;21.006;2024-01-30T03:05:19;31.47;;;14.33;;
39540;SDS011;25219;52.244;21.006;2024-01-30T03:07:45;39.85;;;13.93;;
39540;SDS011;25219;52.244;21.006;2024-01-30T03:10:10;39.43;;;15.73;;
39540;SDS011;25219;52.244;21.006;2024-01-30T03:12:35;32.60;;;15.63;;
39540;SDS011;25219;52.244;21.006;2024-01-30T03:15:01;34.20;;;15.32;;
39540;SDS011;25219;52.244;21.006;2024-01-30T03:17:27;30.98;;;14.32;;
39540;SDS011;25219;52.244;21.006;2024-01-30T03:19:52;37.15;;;14.65;;
39540;SDS011;25219;52.244;21.006;2024-01-30T03:22:17;38.40;;;15.10;;
39540;SDS011;25219;52.244;21.006;2024-01-30T03:24:42;37.70;;;14.98;;
39540;SDS011;25219;52.244;21.006;2024-01-30T03:27:08;34.25;;;15.02;;
39540;SDS011;25219;52.244;21.006;2024-01-30T03:29:33;37.50;;;14.88;;
39540;SDS011;25219;52.244;21.006;2024-01-30T03:31:58;26.97;;;13.20;;
39540;SDS011;25219;52.244;21.006;2024-01-30T03:34:24;31.35;;;14.07;;
39540;SDS011;25219;52.244;21.006;2024-01-30T03:36:49;36.88;;;13.55;;
39540;SDS011;25219;52.244;21.006;2024-01-30T03:39:14;29.65;;;13.85;;
39540;SDS011;25219;52.244;21.006;2024-01-30T03:41:41;32.15;;;15.10;;
39540;SDS011;25219;52.244;21.006;2024-01-30T03:44:07;33.92;;;13.70;;
39540;SDS011;25219;52.244;21.006;2024-01-30T03:46:32;28.20;;;13.37;;
39540;SDS011;25219;52.244;21.006;2024-01-30T03:48:57;33.65;;;14.52;;
39540;SDS011;25219;52.244;21.006;2024-01-30T03:51:22;34.17;;;14.38;;
39540;SDS011;25219;52.244;21.006;2024-01-30T03:53:48;31.77;;;13.67;;
39540;SDS011;25219;52.244;21.006;2024-01-30T03:56:13;38.47;;;14.23;;
39540;SDS011;25219;52.244;21.006;2024-01-30T03:58:39;33.42;;;14.07;;
39540;SDS011;25219;52.244;21.006;2024-01-30T04:01:04;30.48;;;14.32;;
39540;SDS011;25219;52.244;21.006;2024-01-30T04:03:29;29.60;;;13.60;;
39540;SDS011;25219;52.244;21.006;2024-01-30T04:05:54;36.55;;;15.10;;
39540;SDS011;25219;52.244;21.006;2024-01-30T04:08:20;37.78;;;13.55;;
39540;SDS011;25219;52.244;21.006;2024-01-30T04:10:46;38.47;;;13.55;;
39540;SDS011;25219;52.244;21.006;2024-01-30T04:13:11;36.10;;;14.43;;
39540;SDS011;25219;52.244;21.006;2024-01-30T04:15:36;38.67;;;13.43;;
39540;SDS011;25219;52.244;21.006;2024-01-30T04:18:01;31.92;;;14.38;;
39540;SDS011;25219;52.244;21.006;2024-01-30T04:20:27;35.40;;;14.65;;
39540;SDS011;25219;52.244;21.006;2024-01-30T04:22:52;33.15;;;14.68;;
39540;SDS011;25219;52.244;21.006;2024-01-30T04:25:17;34.67;;;14.60;;
39540;SDS011;25219;52.244;21.006;2024-01-30T04:27:42;39.35;;;14.60;;
39540;SDS011;25219;52.244;21.006;2024-01-30T04:30:08;31.85;;;14.52;;
39540;SDS011;25219;52.244;21.006;2024-01-30T04:32:34;31.65;;;14.32;;
39540;SDS011;25219;52.244;21.006;2024-01-30T04:34:59;41.10;;;14.43;;
39540;SDS011;25219;52.244;21.006;2024-01-30T04:37:25;42.50;;;15.07;;
39540;SDS011;25219;52.244;21.006;2024-01-30T04:39:50;32.92;;;14.25;;
39540;SDS011;25219;52.244;21.006;2024-01-30T04:42:16;31.05;;;13.68;;
39540;SDS011;25219;52.244;21.006;2024-01-30T04:44:41;30.00;;;13.25;;
39540;SDS011;25219;52.244;21.006;2024-01-30T04:47:06;30.42;;;13.23;;
39540;SDS011;25219;52.244;21.006;2024-01-30T04:49:34;32.60;;;13.15;;
39540;SDS011;25219;52.244;21.006;2024-01-30T04:51:59;34.92;;;14.27;;
39540;SDS011;25219;52.244;21.006;2024-01-30T04:54:25;33.47;;;14.63;;
39540;SDS011;25219;52.244;21.006;2024-01-30T04:56:50;34.22;;;14.85;;
39540;SDS011;25219;52.244;21.006;2024-01-30T04:59:16;35.03;;;13.53;;
39540;SDS011;25219;52.244;21.006;2024-01-30T05:01:41;33.15;;;13.98;;
39540;SDS011;25219;52.244;21.006;2024-01-30T05:04:09;42.00;;;13.90;;
39540;SDS011;25219;52.244;21.006;2024-01-30T05:06:34;29.33;;;12.93;;
39540;SDS011;25219;52.244;21.006;2024-01-30T05:08:59;34.90;;;13.13;;
39540;SDS011;25219;52.244;21.006;2024-01-30T05:11:24;33.08;;;14.05;;
39540;SDS011;25219;52.244;21.006;2024-01-30T05:13:50;35.20;;;14.37;;
39540;SDS011;25219;52.244;21.006;2024-01-30T05:16:15;33.03;;;13.95;;
39540;SDS011;25219;52.244;21.006;2024-01-30T05:18:40;31.33;;;14.25;;
39540;SDS011;25219;52.244;21.006;2024-01-30T05:21:05;29.67;;;12.97;;
39540;SDS011;25219;52.244;21.006;2024-01-30T05:23:31;35.95;;;14.30;;
39540;SDS011;25219;52.244;21.006;2024-01-30T05:25:56;29.88;;;14.00;;
39540;SDS011;25219;52.244;21.006;2024-01-30T05:28:21;31.65;;;13.93;;
39540;SDS011;25219;52.244;21.006;2024-01-30T05:30:46;32.70;;;14.67;;
39540;SDS011;25219;52.244;21.006;2024-01-30T05:33:12;31.03;;;13.90;;
39540;SDS011;25219;52.244;21.006;2024-01-30T05:35:38;29.00;;;13.50;;
39540;SDS011;25219;52.244;21.006;2024-01-30T05:38:03;34.08;;;14.07;;
39540;SDS011;25219;52.244;21.006;2024-01-30T05:40:29;32.67;;;14.90;;
39540;SDS011;25219;52.244;21.006;2024-01-30T05:42:54;33.55;;;14.20;;
39540;SDS011;25219;52.244;21.006;2024-01-30T05:45:20;34.47;;;13.63;;
39540;SDS011;25219;52.244;21.006;2024-01-30T05:47:45;35.55;;;14.07;;
39540;SDS011;25219;52.244;21.006;2024-01-30T05:50:10;30.67;;;13.00;;
39540;SDS011;25219;52.244;21.006;2024-01-30T05:52:35;32.72;;;13.63;;
39540;SDS011;25219;52.244;21.006;2024-01-30T05:55:00;35.42;;;13.43;;
39540;SDS011;25219;52.244;21.006;2024-01-30T05:57:26;31.38;;;13.23;;
39540;SDS011;25219;52.244;21.006;2024-01-30T05:59:51;32.57;;;13.47;;
39540;SDS011;25219;52.244;21.006;2024-01-30T06:02:17;30.75;;;12.27;;
39540;SDS011;25219;52.244;21.006;2024-01-30T06:04:42;35.80;;;15.02;;
39540;SDS011;25219;52.244;21.006;2024-01-30T06:07:07;30.33;;;12.75;;
39540;SDS011;25219;52.244;21.006;2024-01-30T06:09:33;39.63;;;14.30;;
39540;SDS011;25219;52.244;21.006;2024-01-30T06:11:58;35.20;;;14.18;;
39540;SDS011;25219;52.244;21.006;2024-01-30T06:14:23;36.90;;;14.40;;
39540;SDS011;25219;52.244;21.006;2024-01-30T06:16:48;36.28;;;13.38;;
39540;SDS011;25219;52.244;21.006;2024-01-30T06:19:14;32.15;;;13.10;;
39540;SDS011;25219;52.244;21.006;2024-01-30T06:21:39;33.58;;;13.73;;
39540;SDS011;25219;52.244;21.006;2024-01-30T06:24:05;31.35;;;13.20;;
39540;SDS011;25219;52.244;21.006;2024-01-30T06:26:30;34.47;;;13.55;;
39540;SDS011;25219;52.244;21.006;2024-01-30T06:28:55;33.05;;;13.98;;
39540;SDS011;25219;52.244;21.006;2024-01-30T06:31:20;30.17;;;13.10;;
39540;SDS011;25219;52.244;21.006;2024-01-30T06:33:46;34.22;;;14.05;;
39540;SDS011;25219;52.244;21.006;2024-01-30T06:36:12;33.08;;;12.20;;
39540;SDS011;25219;52.244;21.006;2024-01-30T06:38:37;33.00;;;13.60;;
39540;SDS011;25219;52.244;21.006;2024-01-30T06:41:02;36.72;;;15.10;;
39540;SDS011;25219;52.244;21.006;2024-01-30T06:43:27;28.85;;;13.05;;
39540;SDS011;25219;52.244;21.006;2024-01-30T06:45:53;36.40;;;13.50;;
39540;SDS011;25219;52.244;21.006;2024-01-30T06:48:18;29.77;;;13.77;;
39540;SDS011;25219;52.244;21.006;2024-01-30T06:50:43;32.93;;;13.57;;
39540;SDS011;25219;52.244;21.006;2024-01-30T06:53:08;31.73;;;13.48;;
39540;SDS011;25219;52.244;21.006;2024-01-30T06:55:34;33.00;;;12.55;;
39540;SDS011;25219;52.244;21.006;2024-01-30T06:57:59;32.60;;;12.87;;
39540;SDS011;25219;52.244;21.006;2024-01-30T07:00:24;35.45;;;14.10;;
39540;SDS011;25219;52.244;21.006;2024-01-30T07:02:49;34.27;;;12.17;;
39540;SDS011;25219;52.244;21.006;2024-01-30T07:05:14;29.35;;;12.80;;
39540;SDS011;25219;52.244;21.006;2024-01-30T07:07:40;29.73;;;12.35;;
39540;SDS011;25219;52.244;21.006;2024-01-30T07:10:05;32.72;;;12.68;;
39540;SDS011;25219;52.244;21.006;2024-01-30T07:12:31;31.75;;;12.93;;
39540;SDS011;25219;52.244;21.006;2024-01-30T07:14:56;27.25;;;12.32;;
39540;SDS011;25219;52.244;21.006;2024-01-30T07:17:24;35.25;;;12.43;;
39540;SDS011;25219;52.244;21.006;2024-01-30T07:19:49;30.20;;;13.30;;
39540;SDS011;25219;52.244;21.006;2024-01-30T07:22:14;29.53;;;12.03;;
39540;SDS011;25219;52.244;21.006;2024-01-30T07:24:43;31.80;;;11.90;;
39540;SDS011;25219;52.244;21.006;2024-01-30T07:27:10;31.05;;;12.90;;
39540;SDS011;25219;52.244;21.006;2024-01-30T07:29:35;28.55;;;11.45;;
39540;SDS011;25219;52.244;21.006;2024-01-30T07:32:00;35.85;;;13.68;;
39540;SDS011;25219;52.244;21.006;2024-01-30T07:34:25;29.92;;;13.00;;
39540;SDS011;25219;52.244;21.006;2024-01-30T07:36:51;32.47;;;13.43;;
39540;SDS011;25219;52.244;21.006;2024-01-30T07:39:16;31.87;;;12.67;;
39540;SDS011;25219;52.244;21.006;2024-01-30T07:41:41;29.63;;;12.68;;
39540;SDS011;25219;52.244;21.006;2024-01-30T07:44:07;32.77;;;13.33;;
39540;SDS011;25219;52.244;21.006;2024-01-30T07:46:32;29.17;;;13.40;;
39540;SDS011;25219;52.244;21.006;2024-01-30T07:48:57;32.15;;;12.93;;
39540;SDS011;25219;52.244;21.006;2024-01-30T07:51:22;28.35;;;12.15;;
39540;SDS011;25219;52.244;21.006;2024-01-30T07:53:51;30.37;;;13.47;;
39540;SDS011;25219;52.244;21.006;2024-01-30T07:56:16;29.00;;;13.25;;
39540;SDS011;25219;52.244;21.006;2024-01-30T07:58:41;30.17;;;13.17;;
39540;SDS011;25219;52.244;21.006;2024-01-30T08:01:06;31.27;;;13.13;;
39540;SDS011;25219;52.244;21.006;2024-01-30T08:03:32;29.83;;;12.48;;
39540;SDS011;25219;52.244;21.006;2024-01-30T08:05:57;29.97;;;12.57;;
39540;SDS011;25219;52.244;21.006;2024-01-30T08:08:22;32.37;;;12.90;;
39540;SDS011;25219;52.244;21.006;2024-01-30T08:10:47;35.80;;;13.50;;
39540;SDS011;25219;52.244;21.006;2024-01-30T08:13:13;28.00;;;12.10;;
39540;SDS011;25219;52.244;21.006;2024-01-30T08:15:38;29.52;;;11.63;;
39540;SDS011;25219;52.244;21.006;2024-01-30T08:18:03;31.95;;;12.40;;
39540;SDS011;25219;52.244;21.006;2024-01-30T08:20:29;30.23;;;14.18;;
39540;SDS011;25219;52.244;21.006;2024-01-30T08:22:54;31.00;;;13.10;;
39540;SDS011;25219;52.244;21.006;2024-01-30T08:25:19;33.20;;;14.23;;
39540;SDS011;25219;52.244;21.006;2024-01-30T08:27:45;31.97;;;12.77;;
39540;SDS011;25219;52.244;21.006;2024-01-30T08:30:10;36.22;;;14.98;;
39540;SDS011;25219;52.244;21.006;2024-01-30T08:32:35;32.25;;;13.10;;
39540;SDS011;25219;52.244;21.006;2024-01-30T08:35:00;26.67;;;12.70;;
39540;SDS011;25219;52.244;21.006;2024-01-30T08:37:29;29.63;;;13.38;;
39540;SDS011;25219;52.244;21.006;2024-01-30T08:39:54;23.48;;;11.82;;
39540;SDS011;25219;52.244;21.006;2024-01-30T08:42:20;35.90;;;13.00;;
39540;SDS011;25219;52.244;21.006;2024-01-30T08:44:47;26.38;;;12.93;;
39540;SDS011;25219;52.244;21.006;2024-01-30T08:47:12;34.93;;;12.87;;
39540;SDS011;25219;52.244;21.006;2024-01-30T08:49:37;31.50;;;12.15;;
39540;SDS011;25219;52.244;21.006;2024-01-30T08:52:03;31.87;;;12.73;;
39540;SDS011;25219;52.244;21.006;2024-01-30T08:54:28;28.63;;;12.68;;
39540;SDS011;25219;52.244;21.006;2024-01-30T08:56:53;26.47;;;11.77;;
39540;SDS011;25219;52.244;21.006;2024-01-30T08:59:18;30.93;;;13.00;;
39540;SDS011;25219;52.244;21.006;2024-01-30T09:01:44;30.98;;;13.55;;
39540;SDS011;25219;52.244;21.006;2024-01-30T09:04:09;30.93;;;13.40;;
39540;SDS011;25219;52.244;21.006;2024-01-30T09:06:34;33.70;;;13.23;;
39540;SDS011;25219;52.244;21.006;2024-01-30T09:08:59;25.52;;;11.52;;
39540;SDS011;25219;52.244;21.006;2024-01-30T09:11:24;31.83;;;12.63;;
39540;SDS011;25219;52.244;21.006;2024-01-30T09:13:49;27.83;;;13.13;;
39540;SDS011;25219;52.244;21.006;2024-01-30T09:16:15;30.53;;;12.63;;
39540;SDS011;25219;52.244;21.006;2024-01-30T09:18:41;35.88;;;13.00;;
39540;SDS011;25219;52.244;21.006;2024-01-30T09:21:06;29.45;;;12.60;;
39540;SDS011;25219;52.244;21.006;2024-01-30T09:23:31;31.63;;;11.77;;
39540;SDS011;25219;52.244;21.006;2024-01-30T09:25:57;32.15;;;12.45;;
39540;SDS011;25219;52.244;21.006;2024-01-30T09:28:22;29.67;;;12.02;;
39540;SDS011;25219;52.244;21.006;2024-01-30T09:30:47;32.23;;;11.53;;
39540;SDS011;25219;52.244;21.006;2024-01-30T09:33:12;30.97;;;11.60;;
39540;SDS011;25219;52.244;21.006;2024-01-30T09:35:38;28.70;;;12.57;;
39540;SDS011;25219;52.244;21.006;2024-01-30T09:38:03;27.02;;;11.95;;
39540;SDS011;25219;52.244;21.006;2024-01-30T09:40:28;29.73;;;11.32;;
39540;SDS011;25219;52.244;21.006;2024-01-30T09:42:53;33.72;;;12.77;;
39540;SDS011;25219;52.244;21.006;2024-01-30T09:45:19;28.92;;;11.32;;
39540;SDS011;25219;52.244;21.006;2024-01-30T09:47:45;26.70;;;11.48;;
39540;SDS011;25219;52.244;21.006;2024-01-30T09:50:11;29.67;;;11.35;;
39540;SDS011;25219;52.244;21.006;2024-01-30T09:52:36;33.22;;;12.15;;
39540;SDS011;25219;52.244;21.006;2024-01-30T09:55:02;32.03;;;10.75;;
39540;SDS011;25219;52.244;21.006;2024-01-30T09:57:27;26.58;;;10.20;;
39540;SDS011;25219;52.244;21.006;2024-01-30T09:59:53;24.87;;;11.47;;
39540;SDS011;25219;52.244;21.006;2024-01-30T10:02:19;28.73;;;10.82;;
39540;SDS011;25219;52.244;21.006;2024-01-30T10:04:44;23.10;;;10.27;;
39540;SDS011;25219;52.244;21.006;2024-01-30T10:07:09;30.27;;;12.03;;
39540;SDS011;25219;52.244;21.006;2024-01-30T10:09:36;28.90;;;10.95;;
39540;SDS011;25219;52.244;21.006;2024-01-30T10:12:01;26.17;;;10.45;;
39540;SDS011;25219;52.244;21.006;2024-01-30T10:14:28;25.35;;;10.82;;
39540;SDS011;25219;52.244;21.006;2024-01-30T10:16:53;27.73;;;10.88;;
39540;SDS011;25219;52.244;21.006;2024-01-30T10:19:18;31.03;;;10.60;;
39540;SDS011;25219;52.244;21.006;2024-01-30T10:21:44;27.63;;;11.80;;
39540;SDS011;25219;52.244;21.006;2024-01-30T10:24:10;24.23;;;10.18;;
39540;SDS011;25219;52.244;21.006;2024-01-30T10:26:38;23.52;;;10.57;;
39540;SDS011;25219;52.244;21.006;2024-01-30T10:29:03;27.17;;;8.93;;
39540;SDS011;25219;52.244;21.006;2024-01-30T10:31:28;26.03;;;10.10;;
39540;SDS011;25219;52.244;21.006;2024-01-30T10:33:53;26.60;;;11.05;;
39540;SDS011;25219;52.244;21.006;2024-01-30T10:36:19;22.23;;;10.55;;
39540;SDS011;25219;52.244;21.006;2024-01-30T10:38:47;26.20;;;11.35;;
39540;SDS011;25219;52.244;21.006;2024-01-30T10:41:13;24.73;;;10.93;;
39540;SDS011;25219;52.244;21.006;2024-01-30T10:43:41;22.13;;;10.65;;
39540;SDS011;25219;52.244;21.006;2024-01-30T10:46:08;23.83;;;11.73;;
39540;SDS011;25219;52.244;21.006;2024-01-30T10:48:35;26.33;;;10.73;;
39540;SDS011;25219;52.244;21.006;2024-01-30T10:51:01;32.35;;;12.82;;
39540;SDS011;25219;52.244;21.006;2024-01-30T10:53:27;24.90;;;10.63;;
39540;SDS011;25219;52.244;21.006;2024-01-30T10:55:52;28.15;;;10.88;;
39540;SDS011;25219;52.244;21.006;2024-01-30T10:58:19;23.38;;;10.30;;
39540;SDS011;25219;52.244;21.006;2024-01-30T11:00:45;24.48;;;10.65;;
39540;SDS011;25219;52.244;21.006;2024-01-30T11:03:10;24.20;;;11.02;;
39540;SDS011;25219;52.244;21.006;2024-01-30T11:05:40;29.23;;;10.73;;
39540;SDS011;25219;52.244;21.006;2024-01-30T11:08:14;26.40;;;10.73;;
39540;SDS011;25219;52.244;21.006;2024-01-30T11:10:46;21.60;;;10.00;;
39540;SDS011;25219;52.244;21.006;2024-01-30T11:13:13;22.48;;;10.38;;
39540;SDS011;25219;52.244;21.006;2024-01-30T11:15:38;24.52;;;11.02;;
39540;SDS011;25219;52.244;21.006;2024-01-30T11:18:03;25.60;;;10.68;;
39540;SDS011;25219;52.244;21.006;2024-01-30T11:20:31;21.87;;;10.80;;
39540;SDS011;25219;52.244;21.006;2024-01-30T11:22:57;21.33;;;9.55;;
39540;SDS011;25219;52.244;21.006;2024-01-30T11:25:23;23.00;;;10.55;;
39540;SDS011;25219;52.244;21.006;2024-01-30T11:27:49;22.23;;;10.43;;
39540;SDS011;25219;52.244;21.006;2024-01-30T11:30:28;26.38;;;11.15;;
39540;SDS011;25219;52.244;21.006;2024-01-30T11:33:04;22.35;;;10.43;;
39540;SDS011;25219;52.244;21.006;2024-01-30T11:35:31;28.65;;;10.75;;
39540;SDS011;25219;52.244;21.006;2024-01-30T11:37:57;25.42;;;10.48;;
39540;SDS011;25219;52.244;21.006;2024-01-30T11:40:23;23.25;;;9.93;;
39540;SDS011;25219;52.244;21.006;2024-01-30T11:42:51;23.15;;;10.35;;
39540;SDS011;25219;52.244;21.006;2024-01-30T11:45:17;22.25;;;10.40;;
39540;SDS011;25219;52.244;21.006;2024-01-30T11:47:42;25.02;;;9.63;;
39540;SDS011;25219;52.244;21.006;2024-01-30T11:50:07;26.02;;;10.57;;
39540;SDS011;25219;52.244;21.006;2024-01-30T11:52:35;22.52;;;10.52;;
39540;SDS011;25219;52.244;21.006;2024-01-30T11:55:01;23.55;;;10.98;;
39540;SDS011;25219;52.244;21.006;2024-01-30T11:57:27;24.02;;;10.50;;
39540;SDS011;25219;52.244;21.006;2024-01-30T11:59:52;22.13;;;10.00;;
39540;SDS011;25219;52.244;21.006;2024-01-30T12:02:18;23.65;;;11.23;;
39540;SDS011;25219;52.244;21.006;2024-01-30T12:04:43;21.67;;;11.25;;
39540;SDS011;25219;52.244;21.006;2024-01-30T12:07:08;23.35;;;10.43;;
39540;SDS011;25219;52.244;21.006;2024-01-30T12:09:33;26.10;;;10.47;;
39540;SDS011;25219;52.244;21.006;2024-01-30T12:11:58;21.10;;;10.80;;
39540;SDS011;25219;52.244;21.006;2024-01-30T12:14:24;25.63;;;10.88;;
39540;SDS011;25219;52.244;21.006;2024-01-30T12:16:50;24.20;;;10.75;;
39540;SDS011;25219;52.244;21.006;2024-01-30T12:19:25;20.42;;;10.05;;
39540;SDS011;25219;52.244;21.006;2024-01-30T12:21:56;25.27;;;10.70;;
39540;SDS011;25219;52.244;21.006;2024-01-30T12:24:23;24.42;;;11.77;;
39540;SDS011;25219;52.244;21.006;2024-01-30T12:26:49;22.38;;;10.38;;
39540;SDS011;25219;52.244;21.006;2024-01-30T12:29:14;22.35;;;10.73;;
39540;SDS011;25219;52.244;21.006;2024-01-30T12:31:41;22.58;;;10.30;;
39540;SDS011;25219;52.244;21.006;2024-01-30T12:34:07;21.00;;;9.48;;
39540;SDS011;25219;52.244;21.006;2024-01-30T12:36:32;27.80;;;11.20;;
39540;SDS011;25219;52.244;21.006;2024-01-30T12:38:57;24.60;;;10.33;;
39540;SDS011;25219;52.244;21.006;2024-01-30T12:41:23;21.80;;;9.68;;
39540;SDS011;25219;52.244;21.006;2024-01-30T12:43:53;22.63;;;10.00;;
39540;SDS011;25219;52.244;21.006;2024-01-30T12:46:18;22.55;;;10.43;;
39540;SDS011;25219;52.244;21.006;2024-01-30T12:48:43;23.07;;;9.33;;
39540;SDS011;25219;52.244;21.006;2024-01-30T12:51:08;20.10;;;9.77;;
39540;SDS011;25219;52.244;21.006;2024-01-30T12:53:33;26.77;;;10.40;;
39540;SDS011;25219;52.244;21.006;2024-01-30T12:55:59;25.43;;;11.00;;
39540;SDS011;25219;52.244;21.006;2024-01-30T12:58:24;22.27;;;10.73;;
39540;SDS011;25219;52.244;21.006;2024-01-30T13:00:49;21.43;;;10.17;;
39540;SDS011;25219;52.244;21.006;2024-01-30T13:03:14;20.23;;;10.07;;
39540;SDS011;25219;52.244;21.006;2024-01-30T13:05:39;20.03;;;9.87;;
39540;SDS011;25219;52.244;21.006;2024-01-30T13:08:05;25.45;;;10.20;;
39540;SDS011;25219;52.244;21.006;2024-01-30T13:10:30;23.55;;;9.88;;
39540;SDS011;25219;52.244;21.006;2024-01-30T13:12:55;22.13;;;10.33;;
39540;SDS011;25219;52.244;21.006;2024-01-30T13:15:20;21.27;;;9.38;;
39540;SDS011;25219;52.244;21.006;2024-01-30T13:17:47;19.77;;;10.40;;
39540;SDS011;25219;52.244;21.006;2024-01-30T13:20:13;20.77;;;9.23;;
39540;SDS011;25219;52.244;21.006;2024-01-30T13:22:41;21.35;;;9.27;;
39540;SDS011;25219;52.244;21.006;2024-01-30T13:25:07;24.58;;;10.65;;
39540;SDS011;25219;52.244;21.006;2024-01-30T13:27:32;24.52;;;10.05;;
39540;SDS011;25219;52.244;21.006;2024-01-30T13:29:57;22.73;;;9.73;;
39540;SDS011;25219;52.244;21.006;2024-01-30T13:32:22;19.07;;;8.87;;
39540;SDS011;25219;52.244;21.006;2024-01-30T13:34:47;19.03;;;9.67;;
39540;SDS011;25219;52.244;21.006;2024-01-30T13:37:13;22.37;;;10.00;;
39540;SDS011;25219;52.244;21.006;2024-01-30T13:39:38;18.20;;;10.00;;
39540;SDS011;25219;52.244;21.006;2024-01-30T13:42:04;19.25;;;9.18;;
39540;SDS011;25219;52.244;21.006;2024-01-30T13:44:29;20.33;;;9.07;;
39540;SDS011;25219;52.244;21.006;2024-01-30T13:46:54;21.77;;;9.17;;
39540;SDS011;25219;52.244;21.006;2024-01-30T13:49:20;20.63;;;9.00;;
39540;SDS011;25219;52.244;21.006;2024-01-30T13:51:45;26.92;;;9.68;;
39540;SDS011;25219;52.244;21.006;2024-01-30T13:54:10;22.00;;;10.07;;
39540;SDS011;25219;52.244;21.006;2024-01-30T13:56:35;21.80;;;9.93;;
39540;SDS011;25219;52.244;21.006;2024-01-30T13:59:01;22.85;;;10.23;;
39540;SDS011;25219;52.244;21.006;2024-01-30T14:01:30;21.77;;;9.48;;